EW9605 Lakewood Ranch FL US current weather conditions

sailwx.info

Wind from 169 at 0 knots gusting 1

Air temperature 24.4° C
Dewpoint 22.7° C

Last reported at 2019-Jul-17 04:09 UTC.
Time now 2019-Jul-17 04:45 UTC

Location: N 27°24' W 082°23'.
View on Google Maps.

See reports from other nearby stations

  
Tides and Currents Weather Stations Pressure Air Temp Water Temp Dewpoint Dewpoint Depression Visibility Wind Speed Wind Dir Waves Ship Positions
date/time (UTC)wind fromknots sea level pressurealtimeterstation pressurevisibilityair tempwater tempwave heightnotes
2019-Jul-17 04:09 169 0 gusting 1 24.4
2019-Jul-17 04:01 173 24.4
2019-Jul-17 03:56 24.4
2019-Jul-17 03:51 162 24.4
2019-Jul-17 03:46 165 0 gusting 0 24.4
2019-Jul-17 03:41 24.4
2019-Jul-17 03:36 225 0 gusting 0 24.4
2019-Jul-17 03:31 240 24.4
2019-Jul-17 03:26 24.4
2019-Jul-17 03:21 24.4
2019-Jul-17 03:16 174 0 gusting 1 24.4
2019-Jul-17 03:11 170 0 gusting 1 24.4
2019-Jul-17 03:06 161 1 gusting 1 24.4
2019-Jul-17 03:01 185 23.9
2019-Jul-17 02:56 241 0 gusting 0 24.4
2019-Jul-17 02:51 230 23.9
2019-Jul-17 02:46 171 0 gusting 1 23.9
2019-Jul-17 02:41 24.4
2019-Jul-17 02:36 24.4
2019-Jul-17 02:31 173 0 gusting 1 24.4
2019-Jul-17 02:23 221 24.4
2019-Jul-17 02:18 245 0 gusting 1 24.4
2019-Jul-17 02:13 24.4
2019-Jul-17 02:08 021 0 gusting 1 24.4
2019-Jul-17 02:03 021 0 gusting 0 24.4
2019-Jul-17 01:58 021 24.4
2019-Jul-17 01:53 021 24.4
2019-Jul-17 01:48 021 0 gusting 1 24.4
2019-Jul-17 01:43 006 24.4
2019-Jul-17 01:38 006 24.4
2019-Jul-17 01:35 110 24.4
2019-Jul-17 01:30 077 24.4
2019-Jul-17 01:25 011 24.4
2019-Jul-17 01:20 24.4
2019-Jul-17 01:15 24.4
2019-Jul-17 01:10 012 24.4
2019-Jul-17 01:05 031 0 gusting 1 24.4
2019-Jul-17 01:00 025 1 gusting 2 24.4
2019-Jul-17 00:55 117 24.4
2019-Jul-17 00:50 097 1 gusting 2 24.4
2019-Jul-17 00:45 099 4 gusting 5 24.4
2019-Jul-17 00:40 116 3 gusting 3 25.0
2019-Jul-17 00:35 105 2 gusting 4 25.0
2019-Jul-17 00:30 080 1 gusting 3 25.0
2019-Jul-17 00:25 088 3 gusting 4 25.6
2019-Jul-17 00:20 091 4 gusting 5 25.6
2019-Jul-17 00:15 035 1 gusting 2 25.6
2019-Jul-17 00:10 315 25.6
2019-Jul-17 00:05 311 2 gusting 2 25.6
2019-Jul-17 00:00 278 0 gusting 1 25.6
2019-Jul-16 23:55 25.0
2019-Jul-16 23:50 171 0 gusting 1 25.0
2019-Jul-16 23:41 098 2 gusting 3 25.0
2019-Jul-16 23:36 131 0 gusting 1 25.0
2019-Jul-16 23:31 130 0 gusting 1 25.0
2019-Jul-16 23:26 25.0
2019-Jul-16 23:21 190 2 gusting 4 25.0
2019-Jul-16 23:17 187 25.0
2019-Jul-16 23:12 231 3 gusting 4 26.1
2019-Jul-16 23:07 235 0 gusting 1 26.1
2019-Jul-16 23:02 186 2 gusting 3 26.1
2019-Jul-16 22:57 213 0 gusting 1 26.7
2019-Jul-16 22:52 148 2 gusting 3 27.2
2019-Jul-16 22:47 229 3 gusting 6 28.3
2019-Jul-16 22:42 268 6 gusting 8 28.3
2019-Jul-16 22:37 200 5 gusting 6 28.9
2019-Jul-16 22:32 251 1 gusting 2 28.9
2019-Jul-16 22:27 248 3 gusting 5 30.6
2019-Jul-16 22:22 266 1 gusting 2 31.7
2019-Jul-16 22:17 314 1 gusting 2 31.7
2019-Jul-16 22:12 310 4 gusting 5 31.7
2019-Jul-16 22:07 321 4 gusting 4 31.7
2019-Jul-16 22:02 310 3 gusting 4 31.7
2019-Jul-16 21:57 327 5 gusting 6 31.7
2019-Jul-16 21:52 309 5 gusting 5 31.7
2019-Jul-16 21:47 317 5 gusting 6 32.2
2019-Jul-16 21:42 326 5 gusting 6 32.8
2019-Jul-16 21:37 302 3 gusting 3 32.8
2019-Jul-16 21:32 278 1 gusting 3 32.2
2019-Jul-16 21:27 328 5 gusting 5 32.2
2019-Jul-16 21:23 284 6 gusting 8 32.2
2019-Jul-16 21:18 277 4 gusting 6 32.2
2019-Jul-16 21:13 258 5 gusting 6 31.7
2019-Jul-16 21:08 283 4 gusting 5 31.7
2019-Jul-16 21:03 217 5 gusting 6 31.7
2019-Jul-16 20:58 268 5 gusting 6 31.7
2019-Jul-16 20:53 301 3 gusting 3 31.7
2019-Jul-16 20:48 281 5 gusting 8 32.2
2019-Jul-16 20:43 259 3 gusting 5 32.2
2019-Jul-16 20:38 276 2 gusting 3 32.2
2019-Jul-16 20:33 256 2 gusting 3 32.2
2019-Jul-16 20:28 178 4 gusting 5 32.2
2019-Jul-16 20:23 314 4 gusting 4 32.2
2019-Jul-16 20:18 310 2 gusting 4 32.8
2019-Jul-16 20:13 313 3 gusting 4 32.8
2019-Jul-16 20:08 314 6 gusting 6 32.8
2019-Jul-16 20:03 312 3 gusting 3 33.3
2019-Jul-16 19:55 294 1 gusting 2 34.4
2019-Jul-16 19:50 318 1 gusting 2 34.4
2019-Jul-16 19:45 310 2 gusting 2 34.4
2019-Jul-16 19:40 291 2 gusting 2 35.0
2019-Jul-16 19:35 145 0 gusting 1 33.9
2019-Jul-16 19:30 124 1 gusting 2 33.9
2019-Jul-16 19:25 162 3 gusting 3 35.0
2019-Jul-16 19:20 169 1 gusting 1 35.0
2019-Jul-16 19:15 254 4 gusting 5 34.4
2019-Jul-16 19:10 269 0 gusting 1 34.4
2019-Jul-16 19:05 289 33.9
2019-Jul-16 19:00 152 2 gusting 3 33.9
2019-Jul-16 18:55 180 33.9
2019-Jul-16 18:50 189 33.9
2019-Jul-16 18:45 158 4 gusting 5 33.9
2019-Jul-16 18:40 33.3
2019-Jul-16 18:35 114 6 gusting 7 33.9
2019-Jul-16 18:30 147 4 gusting 4 33.9
2019-Jul-16 18:25 143 1 gusting 2 32.8
2019-Jul-16 18:20 091 2 gusting 3 32.8
2019-Jul-16 18:15 150 2 gusting 3 32.8
2019-Jul-16 18:10 095 3 gusting 3 32.8
2019-Jul-16 18:05 186 1 gusting 2 33.3
2019-Jul-16 18:00 150 2 gusting 3 33.3
2019-Jul-16 17:55 104 4 gusting 5 33.3
2019-Jul-16 17:46 065 0 gusting 1 32.8
2019-Jul-16 17:41 181 3 gusting 3 32.8
2019-Jul-16 17:36 178 3 gusting 4 33.3
2019-Jul-16 17:31 139 0 gusting 1 32.8
2019-Jul-16 17:26 205 32.8
2019-Jul-16 17:21 347 32.2
2019-Jul-16 17:16 32.2
2019-Jul-16 17:11 169 2 gusting 3 32.2
2019-Jul-16 17:06 125 32.2
2019-Jul-16 17:01 111 0 gusting 1 32.2
2019-Jul-16 16:55 016 31.7
2019-Jul-16 16:50 119 31.7
2019-Jul-16 16:45 164 3 gusting 4 31.7
2019-Jul-16 16:40 184 3 gusting 4 31.7
2019-Jul-16 16:35 111 3 gusting 3 31.7
2019-Jul-16 16:30 096 2 gusting 3 31.7
2019-Jul-16 16:25 111 0 gusting 1 31.7
2019-Jul-16 16:20 079 0 gusting 1 31.7
2019-Jul-16 16:15 094 0 gusting 2 32.2
2019-Jul-16 16:08 103 3 gusting 4 31.1
2019-Jul-16 16:03 147 3 gusting 4 31.7
2019-Jul-16 15:58 119 3 gusting 4 31.7
2019-Jul-16 15:53 162 3 gusting 3 31.1
2019-Jul-16 15:48 123 1 gusting 2 31.1
2019-Jul-16 15:43 177 31.1
2019-Jul-16 15:38 140 3 gusting 5 31.1
2019-Jul-16 15:33 188 3 gusting 4 31.1
2019-Jul-16 15:28 147 2 gusting 3 30.6
2019-Jul-16 15:23 140 1 gusting 2 30.6
2019-Jul-16 15:18 160 4 gusting 4 31.1
2019-Jul-16 15:13 162 4 gusting 5 30.6
2019-Jul-16 15:08 120 2 gusting 3 30.6
2019-Jul-16 15:03 131 3 gusting 4 30.6
2019-Jul-16 14:58 121 2 gusting 3 30.0
2019-Jul-16 14:53 125 1 gusting 2 30.0
2019-Jul-16 14:48 114 0 gusting 1 30.0
2019-Jul-16 14:43 109 4 gusting 5 30.0
2019-Jul-16 14:38 131 0 gusting 1 30.0
2019-Jul-16 14:33 170 2 gusting 3 29.4
2019-Jul-16 14:28 168 3 gusting 3 30.0
2019-Jul-16 14:23 135 3 gusting 5 30.0
2019-Jul-16 14:18 152 4 gusting 5 30.0
2019-Jul-16 14:13 178 30.0
2019-Jul-16 14:08 072 6 gusting 7 29.4
2019-Jul-16 14:02 165 29.4
2019-Jul-16 13:57 134 2 gusting 3 28.9
2019-Jul-16 13:52 144 2 gusting 4 28.9
2019-Jul-16 13:47 144 3 gusting 4 28.9
2019-Jul-16 13:42 195 0 gusting 2 28.9
2019-Jul-16 13:37 149 5 gusting 5 28.9
2019-Jul-16 13:32 250 4 gusting 6 28.9
2019-Jul-16 13:27 162 3 gusting 4 28.3
2019-Jul-16 13:22 141 4 gusting 5 28.3
2019-Jul-16 13:17 139 2 gusting 3 28.3
2019-Jul-16 13:12 186 3 gusting 4 28.3
2019-Jul-16 13:07 171 3 gusting 4 28.3
2019-Jul-16 13:02 111 2 gusting 3 27.8
2019-Jul-16 12:57 144 2 gusting 2 27.8
2019-Jul-16 12:52 130 3 gusting 4 27.2
2019-Jul-16 12:47 148 4 gusting 4 27.2
2019-Jul-16 12:42 140 3 gusting 4 27.2
2019-Jul-16 12:37 147 3 gusting 3 27.2
2019-Jul-16 12:32 165 4 gusting 5 27.2
2019-Jul-16 12:27 145 1 gusting 2 27.2
2019-Jul-16 12:22 178 1 gusting 2 27.2
2019-Jul-16 12:17 178 2 gusting 3 26.7
2019-Jul-16 12:12 146 2 gusting 3 26.7
2019-Jul-16 12:07 159 2 gusting 3 26.7
2019-Jul-16 11:59 166 2 gusting 3 26.1
2019-Jul-16 11:54 152 2 gusting 2 26.1
2019-Jul-16 11:49 158 1 gusting 1 26.1
2019-Jul-16 11:44 152 2 gusting 2 26.1
2019-Jul-16 11:39 123 2 gusting 3 25.6
2019-Jul-16 11:34 086 1 gusting 2 25.6
2019-Jul-16 11:29 132 1 gusting 1 25.6
2019-Jul-16 11:24 180 1 gusting 3 25.0
2019-Jul-16 11:19 119 3 gusting 3 25.0
2019-Jul-16 11:11 159 0 gusting 0 25.0
2019-Jul-16 11:06 141 1 gusting 1 25.0
2019-Jul-16 11:01 140 0 gusting 1 25.0
2019-Jul-16 10:56 154 1 gusting 1 25.0
2019-Jul-16 10:51 143 1 gusting 1 25.0
2019-Jul-16 10:46 157 1 gusting 1 25.0
2019-Jul-16 10:41 142 1 gusting 1 25.0
2019-Jul-16 10:36 142 0 gusting 1 25.0
2019-Jul-16 10:31 151 1 gusting 2 25.0
2019-Jul-16 10:26 133 1 gusting 2 25.0
2019-Jul-16 10:21 135 2 gusting 2 25.0
2019-Jul-16 10:16 148 0 gusting 1 25.0
2019-Jul-16 10:11 149 0 gusting 1 25.0
2019-Jul-16 10:06 149 25.0
2019-Jul-16 10:01 154 1 gusting 1 25.0
2019-Jul-16 09:56 132 2 gusting 2 25.0
2019-Jul-16 09:51 125 0 gusting 1 25.0
2019-Jul-16 09:46 119 0 gusting 0 25.0
2019-Jul-16 09:41 156 0 gusting 0 25.0
2019-Jul-16 09:36 163 0 gusting 1 25.0
2019-Jul-16 09:31 145 0 gusting 1 25.0
2019-Jul-16 09:26 174 25.0
2019-Jul-16 09:21 172 25.0
2019-Jul-16 09:16 144 0 gusting 1 25.0
2019-Jul-16 09:11 130 0 gusting 0 25.0
2019-Jul-16 09:06 125 25.0
2019-Jul-16 09:01 25.0
2019-Jul-16 08:56 113 0 gusting 0 25.0
2019-Jul-16 08:51 155 25.0
2019-Jul-16 08:46 141 1 gusting 1 25.0
2019-Jul-16 08:41 148 0 gusting 0 25.0
2019-Jul-16 08:36 135 0 gusting 1 25.0
2019-Jul-16 08:31 120 0 gusting 0 25.0
2019-Jul-16 08:26 103 0 gusting 1 25.0
2019-Jul-16 08:21 124 1 gusting 1 25.0
2019-Jul-16 08:16 161 0 gusting 1 25.0
2019-Jul-16 08:11 135 1 gusting 1 25.0
2019-Jul-16 08:06 139 1 gusting 1 25.0
2019-Jul-16 08:01 122 1 gusting 1 25.0
2019-Jul-16 07:56 117 0 gusting 1 25.0
2019-Jul-16 07:51 112 1 gusting 1 25.0
2019-Jul-16 07:46 125 1 gusting 2 25.6
2019-Jul-16 07:41 119 2 gusting 3 25.6
2019-Jul-16 07:36 132 0 gusting 1 25.6
2019-Jul-16 07:31 151 0 gusting 1 25.6
2019-Jul-16 07:26 125 1 gusting 2 25.6
2019-Jul-16 07:21 144 0 gusting 1 25.6
2019-Jul-16 07:16 125 0 gusting 1 25.6
2019-Jul-16 07:11 135 0 gusting 1 25.6
2019-Jul-16 07:06 116 1 gusting 1 25.6
2019-Jul-16 07:01 123 1 gusting 2 25.6
2019-Jul-16 06:56 089 1 gusting 1 25.6
2019-Jul-16 06:51 107 1 gusting 1 25.6
2019-Jul-16 06:46 112 0 gusting 1 25.6
2019-Jul-16 06:41 124 25.6
2019-Jul-16 06:36 122 1 gusting 1 25.6
2019-Jul-16 06:31 129 0 gusting 1 25.6
2019-Jul-16 06:23 123 3 gusting 3 26.1
2019-Jul-16 06:18 112 2 gusting 2 26.1
2019-Jul-16 06:13 102 0 gusting 2 26.1
2019-Jul-16 06:08 131 2 gusting 2 26.1
2019-Jul-16 06:03 125 1 gusting 2 26.1
2019-Jul-16 05:58 119 1 gusting 2 26.1
2019-Jul-16 05:53 111 0 gusting 1 26.1
2019-Jul-16 05:48 124 3 gusting 3 26.1
2019-Jul-16 05:43 113 1 gusting 1 26.1
2019-Jul-16 05:38 083 1 gusting 2 26.1
2019-Jul-16 05:33 111 1 gusting 1 26.1
2019-Jul-16 05:28 106 0 gusting 1 26.1
2019-Jul-16 05:23 129 1 gusting 1 26.1
2019-Jul-16 05:18 118 0 gusting 1 26.1
2019-Jul-16 05:13 143 1 gusting 1 25.6
2019-Jul-16 05:08 104 1 gusting 1 25.6
2019-Jul-16 05:03 111 1 gusting 2 25.6
2019-Jul-16 04:58 094 1 gusting 2 25.6
2019-Jul-16 04:53 25.6
2019-Jul-16 04:48 093 25.6
2019-Jul-16 04:43 094 0 gusting 1 25.6
2019-Jul-16 04:38 037 25.6
2019-Jul-16 04:31 037 25.6
2019-Jul-16 04:26 043 0 gusting 1 26.1
2019-Jul-16 04:21 042 0 gusting 1 25.6
2019-Jul-16 04:16 042 25.6
2019-Jul-16 04:08 041 0 gusting 0 25.6
2019-Jul-16 04:03 041 0 gusting 0 25.6
2019-Jul-16 03:58 041 25.6
2019-Jul-16 03:53 041 0 gusting 0 25.6
2019-Jul-16 03:48 041 25.6
2019-Jul-16 03:43 25.6
2019-Jul-16 03:38 25.6
2019-Jul-16 03:33 25.6
2019-Jul-16 03:28 25.6
2019-Jul-16 03:25 25.0
2019-Jul-16 03:20 25.0
2019-Jul-16 03:15 25.0
2019-Jul-16 03:10 25.6
2019-Jul-16 03:05 25.6
2019-Jul-16 03:00 042 25.6
2019-Jul-16 02:55 042 25.6
2019-Jul-16 02:50 043 0 gusting 0 25.6
2019-Jul-16 02:45 25.6
2019-Jul-16 02:40 142 25.0
2019-Jul-16 02:35 148 25.0
2019-Jul-16 02:30 131 25.0
2019-Jul-16 02:25 015 25.6
2019-Jul-16 02:20 015 25.0
2019-Jul-16 02:15 25.0
2019-Jul-16 02:10 357 25.0
2019-Jul-16 02:05 25.0
2019-Jul-16 02:00 322 0 gusting 1 25.0
2019-Jul-16 01:55 320 1 gusting 2 25.0
2019-Jul-16 01:50 023 1 gusting 1 25.0
2019-Jul-16 01:45 25.0
2019-Jul-16 01:40 25.0
2019-Jul-16 01:35 023 25.0
2019-Jul-16 01:30 25.0
2019-Jul-16 01:25 023 25.0
2019-Jul-16 01:20 033 0 gusting 1 25.0
2019-Jul-16 01:10 026 1 gusting 1 25.0
2019-Jul-16 01:05 016 1 gusting 2 25.0
2019-Jul-16 01:00 018 0 gusting 1 25.0
2019-Jul-16 00:52 018 1 gusting 2 25.0
2019-Jul-16 00:47 339 3 gusting 4 25.0
2019-Jul-16 00:42 307 1 gusting 2 25.0
2019-Jul-16 00:32 349 0 gusting 0 25.0
2019-Jul-16 00:27 339 1 gusting 1 25.0
2019-Jul-16 00:22 079 1 gusting 2 25.0
2019-Jul-16 00:17 080 2 gusting 2 25.0
2019-Jul-16 00:12 087 1 gusting 1 25.0
2019-Jul-16 00:07 278 25.0
2019-Jul-16 00:02 312 24.4
2019-Jul-15 23:57 260 0 gusting 1 24.4
2019-Jul-15 23:52 158 1 gusting 1 24.4
2019-Jul-15 23:47 147 1 gusting 2 24.4
2019-Jul-15 23:42 295 0 gusting 0 24.4
2019-Jul-15 23:37 24.4
2019-Jul-15 23:32 160 0 gusting 1 24.4
2019-Jul-15 23:27 24.4
2019-Jul-15 23:22 308 0 gusting 1 24.4
2019-Jul-15 23:17 319 3 gusting 4 24.4
2019-Jul-15 23:12 329 2 gusting 3 23.9
2019-Jul-15 23:07 284 23.9
2019-Jul-15 23:02 312 2 gusting 3 23.9
2019-Jul-15 22:57 336 2 gusting 3 23.9
2019-Jul-15 22:50 317 23.9
2019-Jul-15 22:45 291 1 gusting 1 23.9
2019-Jul-15 22:40 304 0 gusting 1 23.9
2019-Jul-15 22:35 197 0 gusting 0 23.9
2019-Jul-15 22:30 200 23.3
2019-Jul-15 22:25 318 1 gusting 2 23.3
2019-Jul-15 22:20 319 4 gusting 5 23.9
2019-Jul-15 22:15 315 6 gusting 7 23.9
2019-Jul-15 22:10 026 2 gusting 3 23.9
2019-Jul-15 22:05 026 2 gusting 3 23.9
2019-Jul-15 22:00 345 1 gusting 4 25.0
2019-Jul-15 21:55 336 2 gusting 2 25.0
2019-Jul-15 21:50 053 4 gusting 5 25.0
2019-Jul-15 21:45 341 3 gusting 4 27.2
2019-Jul-15 21:40 349 5 gusting 6 27.8
2019-Jul-15 21:35 315 5 gusting 7 28.3
2019-Jul-15 21:30 314 5 gusting 6 28.9
2019-Jul-15 21:25 307 4 gusting 5 29.4
2019-Jul-15 21:20 282 2 gusting 3 30.6
2019-Jul-15 21:15 259 1 gusting 3 31.1
2019-Jul-15 21:09 281 2 gusting 3 31.7
2019-Jul-15 21:04 311 4 gusting 5 31.7
2019-Jul-15 20:59 328 4 gusting 5 31.7
2019-Jul-15 20:54 336 4 gusting 5 31.7
2019-Jul-15 20:49 302 3 gusting 4 32.2
2019-Jul-15 20:44 301 6 gusting 8 32.2
2019-Jul-15 20:39 301 1 gusting 3 32.2
2019-Jul-15 20:34 301 4 gusting 6 32.2
2019-Jul-15 20:28 272 6 gusting 8 31.7
2019-Jul-15 20:23 303 5 gusting 6 31.1
2019-Jul-15 20:18 310 4 gusting 5 31.1
2019-Jul-15 20:13 319 6 gusting 8 31.1
2019-Jul-15 20:08 309 5 gusting 7 31.7
2019-Jul-15 20:03 315 5 gusting 6 31.1
2019-Jul-15 19:58 341 6 gusting 8 31.7
2019-Jul-15 19:53 304 7 gusting 9 31.7
2019-Jul-15 19:48 319 5 gusting 6 32.2
2019-Jul-15 19:43 284 1 gusting 3 33.3
2019-Jul-15 19:38 267 2 gusting 2 34.4
2019-Jul-15 19:33 175 33.9
2019-Jul-15 19:28 166 0 gusting 0 33.3
2019-Jul-15 19:23 180 4 gusting 5 33.3
2019-Jul-15 19:18 180 1 gusting 2 33.3
2019-Jul-15 19:13 168 0 gusting 1 33.9
2019-Jul-15 19:08 200 0 gusting 1 33.9
2019-Jul-15 19:03 116 1 gusting 2 33.9
2019-Jul-15 18:58 151 3 gusting 3 33.9
2019-Jul-15 18:53 144 2 gusting 3 33.9
2019-Jul-15 18:48 111 4 gusting 5 33.9
2019-Jul-15 18:43 139 7 gusting 8 33.3
2019-Jul-15 18:38 171 1 gusting 2 33.3
2019-Jul-15 18:33 120 3 gusting 4 33.3
2019-Jul-15 18:28 204 2 gusting 3 33.9
2019-Jul-15 18:20 128 4 gusting 5 33.3
2019-Jul-15 18:15 187 1 gusting 2 32.8
2019-Jul-15 18:10 129 4 gusting 5 33.3
2019-Jul-15 18:05 111 5 gusting 6 33.3
2019-Jul-15 18:00 118 3 gusting 3 32.8
2019-Jul-15 17:55 078 1 gusting 2 32.8
2019-Jul-15 17:50 085 2 gusting 3 32.8
2019-Jul-15 17:45 127 2 gusting 3 32.8
2019-Jul-15 17:40 093 2 gusting 3 32.2
2019-Jul-15 17:35 125 3 gusting 3 32.8
2019-Jul-15 17:30 079 1 gusting 2 33.3
2019-Jul-15 17:25 175 1 gusting 2 32.8
2019-Jul-15 17:20 126 1 gusting 2 32.8
2019-Jul-15 17:15 100 1 gusting 2 32.8
2019-Jul-15 17:10 115 0 gusting 1 32.8
2019-Jul-15 17:05 122 3 gusting 3 32.8
2019-Jul-15 17:00 145 32.8
2019-Jul-15 16:55 181 32.2
2019-Jul-15 16:50 154 4 gusting 5 32.2
2019-Jul-15 16:45 119 6 gusting 6 32.2
2019-Jul-15 16:40 089 1 gusting 2 31.7
2019-Jul-15 16:35 136 3 gusting 5 32.2
2019-Jul-15 16:30 193 3 gusting 4 31.7
2019-Jul-15 16:25 124 32.2
2019-Jul-15 16:20 121 1 gusting 2 31.7
2019-Jul-15 16:14 001 2 gusting 3 31.7
2019-Jul-15 16:09 114 3 gusting 4 31.1
2019-Jul-15 16:04 095 0 gusting 1 31.1
2019-Jul-15 15:59 173 3 gusting 4 31.7
2019-Jul-15 15:54 143 5 gusting 6 31.7
2019-Jul-15 15:49 121 2 gusting 2 31.1
2019-Jul-15 15:44 135 2 gusting 3 31.1
2019-Jul-15 15:39 147 1 gusting 2 31.1
2019-Jul-15 15:34 170 4 gusting 5 31.1
2019-Jul-15 15:29 167 2 gusting 3 30.6
2019-Jul-15 15:24 158 6 gusting 7 30.6
2019-Jul-15 15:19 145 5 gusting 6 30.6
2019-Jul-15 15:14 151 4 gusting 4 30.6
2019-Jul-15 15:09 166 3 gusting 4 30.6
2019-Jul-15 15:04 128 5 gusting 6 30.0
2019-Jul-15 14:59 182 3 gusting 4 30.6
2019-Jul-15 14:54 161 4 gusting 5 30.0
2019-Jul-15 14:49 151 1 gusting 1 30.0
2019-Jul-15 14:44 133 3 gusting 3 30.0
2019-Jul-15 14:39 162 4 gusting 4 30.0
2019-Jul-15 14:34 144 4 gusting 5 29.4
2019-Jul-15 14:29 161 3 gusting 3 29.4
2019-Jul-15 14:24 118 4 gusting 5 29.4
2019-Jul-15 14:16 138 3 gusting 3 30.0
2019-Jul-15 14:11 149 0 gusting 0 29.4
2019-Jul-15 14:06 105 1 gusting 3 29.4
2019-Jul-15 14:01 151 4 gusting 6 28.9
2019-Jul-15 13:56 181 1 gusting 1 28.9
2019-Jul-15 13:51 164 4 gusting 6 28.9
2019-Jul-15 13:46 130 5 gusting 6 28.9
2019-Jul-15 13:41 163 1 gusting 2 28.9
2019-Jul-15 13:37 159 3 gusting 5 28.3
2019-Jul-15 13:31 118 3 gusting 5 28.3
2019-Jul-15 13:26 107 6 gusting 7 28.3
2019-Jul-15 13:21 151 4 gusting 4 28.9
2019-Jul-15 13:16 142 1 gusting 1 28.3
2019-Jul-15 13:11 146 2 gusting 3 28.3
2019-Jul-15 13:06 129 2 gusting 2 27.8
2019-Jul-15 13:01 140 1 gusting 1 27.8
2019-Jul-15 12:56 165 0 gusting 0 27.8
2019-Jul-15 12:51 150 1 gusting 2 27.8
2019-Jul-15 12:46 098 1 gusting 1 27.8
2019-Jul-15 12:41 130 1 gusting 2 27.2
2019-Jul-15 12:36 098 0 gusting 1 27.2
2019-Jul-15 12:31 113 27.2
2019-Jul-15 12:26 175 0 gusting 0 27.2
2019-Jul-15 12:21 129 0 gusting 1 26.7
2019-Jul-15 12:16 115 1 gusting 1 26.7
2019-Jul-15 12:11 127 0 gusting 1 26.1
2019-Jul-15 12:06 111 0 gusting 0 26.1
2019-Jul-15 12:01 113 1 gusting 2 25.6
2019-Jul-15 11:56 145 1 gusting 2 25.6
2019-Jul-15 11:51 149 25.6
2019-Jul-15 11:46 129 2 gusting 2 25.0
2019-Jul-15 11:42 132 1 gusting 2 25.0
2019-Jul-15 11:37 156 1 gusting 1 25.0
2019-Jul-15 11:32 131 1 gusting 1 25.0
2019-Jul-15 11:27 120 0 gusting 0 24.4
2019-Jul-15 11:22 131 24.4
2019-Jul-15 11:17 144 0 gusting 1 24.4
2019-Jul-15 11:12 143 24.4
2019-Jul-15 11:07 101 0 gusting 0 24.4
2019-Jul-15 11:02 139 24.4
2019-Jul-15 10:57 150 24.4
2019-Jul-15 10:52 176 24.4
2019-Jul-15 10:47 121 24.4
2019-Jul-15 10:42 152 0 gusting 0 24.4
2019-Jul-15 10:37 160 0 gusting 0 24.4
2019-Jul-15 10:32 162 0 gusting 1 24.4
2019-Jul-15 10:27 152 1 gusting 2 24.4
2019-Jul-15 10:22 144 1 gusting 1 24.4
2019-Jul-15 10:17 149 0 gusting 0 24.4
2019-Jul-15 10:12 147 0 gusting 0 24.4
2019-Jul-15 10:07 160 0 gusting 0 24.4
2019-Jul-15 10:02 161 0 gusting 0 24.4
2019-Jul-15 09:57 158 0 gusting 1 24.4
2019-Jul-15 09:52 165 0 gusting 0 23.9
2019-Jul-15 09:47 165 24.4
2019-Jul-15 09:42 173 0 gusting 1 24.4
2019-Jul-15 09:37 184 24.4
2019-Jul-15 09:30 184 24.4
2019-Jul-15 09:25 24.4
2019-Jul-15 09:20 156 24.4
2019-Jul-15 09:15 160 24.4
2019-Jul-15 09:06 178 0 gusting 1 25.0
2019-Jul-15 09:01 147 0 gusting 1 25.0
2019-Jul-15 08:56 134 0 gusting 1 25.0
2019-Jul-15 08:51 135 0 gusting 0 25.0
2019-Jul-15 08:46 131 1 gusting 1 25.0
2019-Jul-15 08:41 135 0 gusting 1 25.0
2019-Jul-15 08:36 159 0 gusting 0 25.0
2019-Jul-15 08:31 130 25.0
2019-Jul-15 08:26 154 1 gusting 1 25.0
2019-Jul-15 08:21 153 1 gusting 1 25.0
2019-Jul-15 08:16 132 1 gusting 1 25.0
2019-Jul-15 08:11 133 2 gusting 3 25.0
2019-Jul-15 08:06 112 1 gusting 2 25.0
2019-Jul-15 08:01 086 2 gusting 2 25.0
2019-Jul-15 07:56 126 1 gusting 2 25.0
2019-Jul-15 07:51 140 0 gusting 1 25.0
2019-Jul-15 07:46 154 0 gusting 1 25.0
2019-Jul-15 07:41 148 0 gusting 1 25.0
2019-Jul-15 07:36 142 1 gusting 2 25.0
2019-Jul-15 07:31 151 2 gusting 3 25.0
2019-Jul-15 07:26 145 1 gusting 2 25.6
2019-Jul-15 07:21 143 0 gusting 2 25.6
2019-Jul-15 07:16 161 1 gusting 2 25.6
2019-Jul-15 07:11 135 1 gusting 2 25.6
2019-Jul-15 07:06 146 5 gusting 6 25.6
2019-Jul-15 07:02 125 2 gusting 3 25.6
2019-Jul-15 06:57 148 2 gusting 4 25.6
2019-Jul-15 06:52 157 2 gusting 3 25.6
2019-Jul-15 06:47 151 3 gusting 4 25.6
2019-Jul-15 06:42 119 3 gusting 4 26.1
2019-Jul-15 06:37 116 4 gusting 4 26.1
2019-Jul-15 06:32 156 3 gusting 4 26.1
2019-Jul-15 06:27 125 5 gusting 6 26.1
2019-Jul-15 06:22 125 3 gusting 4 26.1
2019-Jul-15 06:17 122 3 gusting 4 26.1
2019-Jul-15 06:12 117 4 gusting 5 26.1
2019-Jul-15 06:07 148 5 gusting 6 26.1
2019-Jul-15 06:02 111 3 gusting 3 26.1
2019-Jul-15 05:56 130 3 gusting 3 26.1
2019-Jul-15 05:51 140 2 gusting 3 26.1
2019-Jul-15 05:46 154 5 gusting 6 26.1
2019-Jul-15 05:41 116 3 gusting 3 26.1
2019-Jul-15 05:36 139 4 gusting 4 26.1
2019-Jul-15 05:31 152 2 gusting 3 26.1
2019-Jul-15 05:26 139 3 gusting 4 26.1
2019-Jul-15 05:21 162 3 gusting 4 26.1
2019-Jul-15 05:16 135 3 gusting 4 26.1
2019-Jul-15 05:11 137 1 gusting 2 26.7
2019-Jul-15 05:06 133 4 gusting 4 26.7
2019-Jul-15 05:01 127 3 gusting 4 26.7
2019-Jul-15 04:56 106 2 gusting 3 26.7
2019-Jul-15 04:51 115 3 gusting 4 27.2
2019-Jul-15 04:46 131 2 gusting 2 27.2
2019-Jul-15 04:41 127 2 gusting 2 27.2
2019-Jul-15 04:36 151 1 gusting 2 27.2
2019-Jul-15 04:31 158 2 gusting 2 27.2
2019-Jul-15 04:26 110 2 gusting 3 27.2
2019-Jul-15 04:21 122 1 gusting 1 27.2
2019-Jul-15 04:16 141 1 gusting 2 27.2
2019-Jul-15 04:08 162 1 gusting 2 27.2
2019-Jul-15 04:03 155 0 gusting 1 27.2